createdAt,value
2023-05-09T00:00:06.243Z,364.00
2023-05-09T00:01:06.227Z,363.00
2023-05-09T00:02:06.314Z,360.00
2023-05-09T00:03:06.379Z,359.00
2023-05-09T00:04:06.370Z,358.00
2023-05-09T00:05:06.325Z,358.00
2023-05-09T00:06:06.372Z,358.00
2023-05-09T00:07:06.422Z,358.00
2023-05-09T00:08:06.433Z,357.00
2023-05-09T00:09:06.475Z,357.00
2023-05-09T00:10:06.508Z,356.00
2023-05-09T00:11:06.611Z,356.00
2023-05-09T00:12:06.579Z,355.00
2023-05-09T00:13:06.621Z,354.00
2023-05-09T00:14:06.621Z,354.00
2023-05-09T00:15:06.647Z,353.00
2023-05-09T00:16:06.724Z,355.00
2023-05-09T00:17:06.723Z,356.00
2023-05-09T00:18:06.741Z,357.00
2023-05-09T00:19:06.789Z,358.00
2023-05-09T00:20:06.802Z,359.00
2023-05-09T00:21:06.848Z,359.00
2023-05-09T00:22:06.866Z,358.00
2023-05-09T00:23:06.893Z,357.00
2023-05-09T00:24:06.950Z,359.00
2023-05-09T00:25:06.968Z,359.00
2023-05-09T00:26:06.989Z,358.00
2023-05-09T00:27:07.122Z,359.00
2023-05-09T00:28:07.106Z,360.00
2023-05-09T00:29:07.106Z,358.00
2023-05-09T00:30:07.148Z,358.00
2023-05-09T00:31:07.179Z,360.00
2023-05-09T00:32:07.260Z,360.00
2023-05-09T00:33:07.269Z,360.00
2023-05-09T00:34:07.286Z,358.00
2023-05-09T00:35:07.316Z,358.00
2023-05-09T00:36:07.340Z,359.00
2023-05-09T00:37:07.379Z,358.00
2023-05-09T00:38:07.412Z,360.00
2023-05-09T00:39:07.424Z,357.00
2023-05-09T00:40:07.468Z,358.00
2023-05-09T00:41:07.496Z,356.00
2023-05-09T00:42:07.536Z,353.00
2023-05-09T00:43:07.646Z,354.00
2023-05-09T00:44:07.608Z,354.00
2023-05-09T00:45:07.666Z,352.00
2023-05-09T00:46:07.706Z,352.00
2023-05-09T00:47:07.703Z,350.00
2023-05-09T00:48:07.801Z,351.00
2023-05-09T00:49:07.758Z,350.00
2023-05-09T00:50:07.789Z,351.00
2023-05-09T00:51:07.841Z,350.00
2023-05-09T00:52:07.878Z,349.00
2023-05-09T00:53:07.928Z,349.00
2023-05-09T00:54:09.289Z,349.00
2023-05-09T00:55:07.961Z,348.00
2023-05-09T00:56:07.999Z,347.00
2023-05-09T00:57:08.051Z,346.00
2023-05-09T00:58:08.070Z,346.00
2023-05-09T00:59:08.192Z,347.00
2023-05-09T01:00:08.185Z,347.00
2023-05-09T01:01:08.219Z,347.00
2023-05-09T01:02:08.219Z,348.00
2023-05-09T01:03:08.486Z,351.00
2023-05-09T01:04:08.334Z,352.00
2023-05-09T01:05:08.338Z,352.00
2023-05-09T01:06:08.382Z,353.00
2023-05-09T01:07:08.429Z,353.00
2023-05-09T01:08:08.468Z,356.00
2023-05-09T01:09:08.509Z,355.00
2023-05-09T01:10:08.578Z,353.00
2023-05-09T01:11:08.580Z,351.00
2023-05-09T01:12:08.616Z,354.00
2023-05-09T01:13:08.725Z,355.00
2023-05-09T01:14:08.697Z,355.00
2023-05-09T01:15:08.814Z,356.00
2023-05-09T01:16:08.894Z,355.00
2023-05-09T01:17:08.820Z,353.00
2023-05-09T01:18:08.891Z,353.00
2023-05-09T01:19:08.988Z,350.00
2023-05-09T01:20:08.950Z,355.00
2023-05-09T01:21:08.993Z,354.00
2023-05-09T01:22:09.049Z,352.00
2023-05-09T01:23:09.049Z,350.00
2023-05-09T01:24:09.080Z,353.00
2023-05-09T01:25:09.129Z,355.00
2023-05-09T01:26:09.149Z,352.00
2023-05-09T01:27:09.215Z,350.00
2023-05-09T01:28:09.256Z,351.00
2023-05-09T01:29:09.277Z,350.00
2023-05-09T01:30:09.326Z,347.00
2023-05-09T01:31:09.496Z,347.00
2023-05-09T01:32:09.450Z,347.00
2023-05-09T01:33:09.508Z,348.00
2023-05-09T01:34:09.487Z,348.00
2023-05-09T01:35:09.533Z,348.00
2023-05-09T01:36:09.575Z,351.00
2023-05-09T01:37:09.629Z,351.00
2023-05-09T01:38:09.648Z,351.00
2023-05-09T01:39:09.696Z,354.00
2023-05-09T01:40:09.748Z,355.00
2023-05-09T01:41:09.792Z,352.00
2023-05-09T01:42:09.830Z,352.00
2023-05-09T01:43:09.947Z,355.00
2023-05-09T01:44:09.966Z,356.00
2023-05-09T01:45:09.969Z,356.00
2023-05-09T01:46:10.021Z,357.00
2023-05-09T01:47:10.114Z,359.00
2023-05-09T01:48:10.149Z,358.00
2023-05-09T01:49:10.121Z,357.00
2023-05-09T01:50:10.169Z,356.00
2023-05-09T01:51:10.209Z,356.00
2023-05-09T01:52:10.263Z,355.00
2023-05-09T01:53:10.304Z,356.00
2023-05-09T01:54:10.331Z,357.00
2023-05-09T01:55:10.383Z,359.00
2023-05-09T01:56:10.433Z,360.00
2023-05-09T01:57:10.479Z,361.00
2023-05-09T01:58:10.518Z,360.00
2023-05-09T01:59:10.576Z,359.00
2023-05-09T02:00:10.630Z,358.00
2023-05-09T02:01:10.705Z,360.00
2023-05-09T02:02:10.743Z,360.00
2023-05-09T02:03:10.850Z,360.00
2023-05-09T02:04:10.794Z,360.00
2023-05-09T02:05:10.829Z,359.00
2023-05-09T02:06:10.865Z,357.00
2023-05-09T02:07:10.918Z,353.00
2023-05-09T02:08:10.977Z,355.00
2023-05-09T02:09:11.011Z,356.00
2023-05-09T02:10:11.056Z,358.00
2023-05-09T02:11:11.093Z,358.00
2023-05-09T02:12:11.135Z,358.00
2023-05-09T02:13:11.241Z,357.00
2023-05-09T02:14:11.240Z,358.00
2023-05-09T02:15:11.311Z,358.00
2023-05-09T02:16:11.336Z,358.00
2023-05-09T02:17:11.422Z,356.00
2023-05-09T02:18:11.460Z,357.00
2023-05-09T02:19:11.557Z,357.00
2023-05-09T02:20:11.603Z,357.00
2023-05-09T02:21:11.629Z,357.00
2023-05-09T02:22:11.601Z,359.00
2023-05-09T02:23:11.657Z,358.00
2023-05-09T02:24:11.698Z,356.00
2023-05-09T02:25:11.804Z,358.00
2023-05-09T02:26:11.804Z,358.00
2023-05-09T02:27:11.924Z,358.00
2023-05-09T02:28:11.901Z,359.00
2023-05-09T02:29:11.916Z,359.00
2023-05-09T02:30:11.970Z,357.00
2023-05-09T02:31:12.011Z,357.00
2023-05-09T02:32:12.148Z,356.00
2023-05-09T02:33:12.129Z,357.00
2023-05-09T02:34:12.150Z,358.00
2023-05-09T02:35:12.427Z,359.00
2023-05-09T02:36:12.250Z,360.00
2023-05-09T02:37:12.448Z,360.00
2023-05-09T02:38:12.374Z,359.00
2023-05-09T02:39:12.381Z,361.00
2023-05-09T02:40:12.435Z,358.00
2023-05-09T02:41:12.467Z,357.00
2023-05-09T02:42:12.511Z,358.00
2023-05-09T02:43:12.560Z,357.00
2023-05-09T02:44:12.625Z,354.00
2023-05-09T02:45:12.790Z,356.00
2023-05-09T02:46:12.730Z,357.00
2023-05-09T02:47:12.743Z,357.00
2023-05-09T02:48:12.858Z,359.00
2023-05-09T02:49:22.756Z,360.00
2023-05-09T02:50:13.824Z,359.00
2023-05-09T02:51:12.888Z,360.00
2023-05-09T02:52:12.850Z,361.00
2023-05-09T02:53:12.810Z,359.00
2023-05-09T02:54:12.846Z,359.00
2023-05-09T02:55:12.917Z,360.00
2023-05-09T02:56:12.790Z,360.00
2023-05-09T02:57:12.768Z,359.00
2023-05-09T02:58:14.797Z,358.00
2023-05-09T02:59:12.754Z,360.00
2023-05-09T03:00:12.792Z,361.00
2023-05-09T03:01:12.897Z,360.00
2023-05-09T03:02:12.908Z,360.00
2023-05-09T03:03:13.056Z,361.00
2023-05-09T03:04:13.001Z,358.00
2023-05-09T03:05:13.270Z,356.00
2023-05-09T03:06:13.075Z,356.00
2023-05-09T03:07:13.221Z,357.00
2023-05-09T03:08:13.181Z,358.00
2023-05-09T03:09:13.294Z,359.00
2023-05-09T03:10:13.269Z,362.00
2023-05-09T03:11:13.323Z,361.00
2023-05-09T03:12:13.361Z,360.00
2023-05-09T03:13:13.529Z,360.00
2023-05-09T03:14:13.502Z,358.00
2023-05-09T03:15:13.749Z,357.00
2023-05-09T03:16:13.582Z,352.00
2023-05-09T03:17:13.588Z,352.00
2023-05-09T03:18:13.628Z,354.00
2023-05-09T03:19:13.695Z,352.00
2023-05-09T03:20:13.740Z,353.00
2023-05-09T03:21:13.798Z,353.00
2023-05-09T03:22:13.846Z,354.00
2023-05-09T03:23:13.965Z,354.00
2023-05-09T03:24:13.967Z,352.00
2023-05-09T03:25:14.184Z,352.00
2023-05-09T03:26:14.005Z,353.00
2023-05-09T03:27:14.028Z,356.00
2023-05-09T03:28:14.093Z,356.00
2023-05-09T03:29:14.137Z,358.00
2023-05-09T03:30:14.158Z,359.00
2023-05-09T03:31:14.221Z,360.00
2023-05-09T03:32:15.314Z,360.00
2023-05-09T03:33:14.305Z,358.00
2023-05-09T03:34:14.488Z,356.00
2023-05-09T03:35:14.596Z,357.00
2023-05-09T03:36:14.457Z,355.00
2023-05-09T03:37:14.484Z,356.00
2023-05-09T03:38:14.534Z,354.00
2023-05-09T03:39:14.672Z,356.00
2023-05-09T03:40:14.637Z,356.00
2023-05-09T03:41:14.792Z,354.00
2023-05-09T03:42:14.713Z,354.00
2023-05-09T03:43:14.764Z,353.00
2023-05-09T03:44:14.822Z,354.00
2023-05-09T03:45:15.133Z,355.00
2023-05-09T03:46:14.916Z,356.00
2023-05-09T03:47:14.944Z,355.00
2023-05-09T03:48:14.971Z,351.00
2023-05-09T03:49:15.028Z,350.00
2023-05-09T03:50:15.079Z,351.00
2023-05-09T03:51:15.102Z,353.00
2023-05-09T03:52:15.187Z,354.00
2023-05-09T03:53:15.182Z,356.00
2023-05-09T03:54:15.236Z,355.00
2023-05-09T03:55:15.620Z,357.00
2023-05-09T03:56:15.311Z,357.00
2023-05-09T03:57:15.370Z,355.00
2023-05-09T03:58:15.396Z,359.00
2023-05-09T03:59:15.452Z,360.00
2023-05-09T04:00:15.514Z,359.00
2023-05-09T04:01:15.519Z,359.00
2023-05-09T04:02:15.613Z,355.00
2023-05-09T04:03:15.682Z,353.00
2023-05-09T04:04:15.661Z,352.00
2023-05-09T04:05:16.013Z,352.00
2023-05-09T04:06:15.770Z,354.00
2023-05-09T04:07:15.804Z,352.00
2023-05-09T04:08:15.878Z,352.00
2023-05-09T04:09:15.907Z,356.00
2023-05-09T04:10:15.952Z,356.00
2023-05-09T04:11:16.075Z,357.00
2023-05-09T04:12:16.035Z,355.00
2023-05-09T04:13:16.147Z,355.00
2023-05-09T04:14:16.116Z,354.00
2023-05-09T04:15:16.415Z,354.00
2023-05-09T04:16:16.244Z,352.00
2023-05-09T04:17:16.270Z,354.00
2023-05-09T04:18:16.320Z,356.00
2023-05-09T04:19:16.555Z,359.00
2023-05-09T04:20:16.415Z,358.00
2023-05-09T04:21:16.449Z,360.00
2023-05-09T04:22:16.515Z,362.00
2023-05-09T04:23:16.530Z,363.00
2023-05-09T04:24:16.597Z,362.00
2023-05-09T04:25:16.755Z,360.00
2023-05-09T04:26:16.677Z,358.00
2023-05-09T04:27:16.822Z,356.00
2023-05-09T04:28:16.758Z,356.00
2023-05-09T04:29:16.808Z,356.00
2023-05-09T04:30:16.852Z,355.00
2023-05-09T04:31:17.015Z,355.00
2023-05-09T04:32:17.008Z,352.00
2023-05-09T04:33:16.997Z,348.00
2023-05-09T04:34:17.039Z,349.00
2023-05-09T04:35:19.832Z,347.00
2023-05-09T04:36:17.091Z,348.00
2023-05-09T04:37:17.109Z,350.00
2023-05-09T04:38:17.081Z,349.00
2023-05-09T04:39:17.061Z,349.00
2023-05-09T04:40:17.068Z,350.00
2023-05-09T04:41:17.041Z,351.00
2023-05-09T04:42:17.064Z,349.00
2023-05-09T04:43:17.115Z,349.00
2023-05-09T04:44:17.023Z,349.00
2023-05-09T04:45:17.275Z,349.00
2023-05-09T04:46:17.035Z,349.00
2023-05-09T04:47:17.016Z,349.00
2023-05-09T04:48:17.019Z,348.00
2023-05-09T04:49:17.011Z,349.00
2023-05-09T04:50:16.987Z,351.00
2023-05-09T04:51:17.050Z,351.00
2023-05-09T04:52:16.996Z,350.00
2023-05-09T04:53:16.990Z,350.00
2023-05-09T04:54:16.970Z,350.00
2023-05-09T04:55:17.191Z,348.00
2023-05-09T04:56:16.975Z,348.00
2023-05-09T04:57:18.804Z,347.00
2023-05-09T04:58:16.933Z,345.00
2023-05-09T04:59:17.013Z,345.00
2023-05-09T05:00:16.928Z,342.00
2023-05-09T05:01:16.952Z,343.00
2023-05-09T05:02:16.926Z,345.00
2023-05-09T05:03:17.006Z,347.00
2023-05-09T05:04:17.033Z,348.00
2023-05-09T05:05:17.075Z,348.00
2023-05-09T05:06:17.102Z,345.00
2023-05-09T05:07:17.154Z,346.00
2023-05-09T05:08:17.205Z,346.00
2023-05-09T05:09:17.233Z,349.00
2023-05-09T05:10:17.294Z,348.00
2023-05-09T05:11:17.317Z,347.00
2023-05-09T05:12:17.381Z,350.00
2023-05-09T05:13:17.508Z,352.00
2023-05-09T05:14:17.463Z,355.00
2023-05-09T05:15:17.577Z,356.00
2023-05-09T05:16:17.638Z,357.00
2023-05-09T05:17:17.599Z,356.00
2023-05-09T05:18:17.633Z,356.00
2023-05-09T05:19:17.677Z,354.00
2023-05-09T05:20:17.723Z,354.00
2023-05-09T05:21:17.754Z,355.00
2023-05-09T05:22:17.807Z,355.00
2023-05-09T05:23:17.838Z,354.00
2023-05-09T05:24:17.894Z,354.00
2023-05-09T05:25:17.928Z,356.00
2023-05-09T05:26:18.030Z,356.00
2023-05-09T05:27:18.023Z,356.00
2023-05-09T05:28:18.062Z,358.00
2023-05-09T05:29:18.164Z,360.00
2023-05-09T05:30:18.155Z,377.00
2023-05-09T05:31:18.284Z,377.00
2023-05-09T05:32:18.237Z,382.00
2023-05-09T05:33:18.288Z,409.00
2023-05-09T05:34:18.301Z,407.00
2023-05-09T05:35:18.356Z,434.00
2023-05-09T05:36:18.357Z,495.00
2023-05-09T05:37:18.396Z,517.00
2023-05-09T05:38:18.533Z,526.00
2023-05-09T05:39:18.446Z,532.00
2023-05-09T05:40:18.457Z,574.00
2023-05-09T05:41:18.472Z,597.00
2023-05-09T05:42:18.486Z,576.00
2023-05-09T05:43:18.512Z,576.00
2023-05-09T05:44:18.530Z,577.00
2023-05-09T05:45:18.566Z,563.00
2023-05-09T05:46:18.658Z,476.00
2023-05-09T05:47:18.640Z,469.00
2023-05-09T05:48:18.556Z,463.00
2023-05-09T05:49:18.567Z,459.00
2023-05-09T05:50:18.596Z,454.00
2023-05-09T05:51:18.627Z,459.00
2023-05-09T05:52:18.655Z,457.00
2023-05-09T05:53:18.660Z,454.00
2023-05-09T05:54:18.681Z,453.00
2023-05-09T05:55:18.715Z,449.00
2023-05-09T05:56:18.728Z,463.00
2023-05-09T05:57:18.769Z,534.00
2023-05-09T05:58:18.821Z,514.00
2023-05-09T05:59:18.831Z,502.00
2023-05-09T06:00:18.839Z,490.00
2023-05-09T06:01:18.855Z,477.00
2023-05-09T06:02:18.915Z,466.00
2023-05-09T06:03:19.110Z,485.00
2023-05-09T06:04:18.960Z,481.00
2023-05-09T06:05:18.981Z,484.00
2023-05-09T06:06:19.088Z,473.00
2023-05-09T06:07:19.031Z,463.00
2023-05-09T06:08:19.051Z,459.00
2023-05-09T06:09:19.093Z,456.00
2023-05-09T06:10:19.169Z,455.00
2023-05-09T06:11:19.171Z,453.00
2023-05-09T06:12:19.179Z,459.00
2023-05-09T06:13:19.677Z,462.00
2023-05-09T06:14:19.533Z,457.00
2023-05-09T06:15:19.262Z,466.00
2023-05-09T06:16:20.506Z,470.00
2023-05-09T06:17:19.521Z,479.00
2023-05-09T06:18:19.363Z,471.00
2023-05-09T06:19:19.627Z,457.00
2023-05-09T06:20:19.414Z,450.00
2023-05-09T06:21:19.460Z,445.00
2023-05-09T06:22:19.500Z,451.00
2023-05-09T06:23:19.582Z,554.00
2023-05-09T06:24:28.026Z,501.00
2023-05-09T06:25:20.579Z,547.00
2023-05-09T06:26:19.564Z,475.00
2023-05-09T06:27:19.557Z,443.00
2023-05-09T06:28:19.577Z,443.00
2023-05-09T06:29:19.533Z,456.00
2023-05-09T06:30:26.241Z,456.00
2023-05-09T06:31:20.660Z,483.00
2023-05-09T06:32:19.566Z,491.00
2023-05-09T06:33:19.528Z,508.00
2023-05-09T06:34:20.057Z,510.00
2023-05-09T06:35:19.592Z,513.00
2023-05-09T06:36:19.522Z,517.00
2023-05-09T06:37:19.523Z,527.00
2023-05-09T06:38:19.532Z,538.00
2023-05-09T06:39:19.574Z,482.00
2023-05-09T06:40:19.466Z,468.00
2023-05-09T06:41:19.470Z,477.00
2023-05-09T06:42:19.463Z,470.00
2023-05-09T06:43:19.450Z,489.00
2023-05-09T06:44:19.456Z,479.00
2023-05-09T06:45:19.600Z,466.00
2023-05-09T06:46:19.480Z,461.00
2023-05-09T06:47:19.411Z,453.00
2023-05-09T06:48:19.561Z,458.00
2023-05-09T06:49:19.413Z,461.00
2023-05-09T06:50:19.418Z,461.00
2023-05-09T06:51:19.544Z,458.00
2023-05-09T06:52:19.472Z,466.00
2023-05-09T06:53:19.570Z,479.00
2023-05-09T06:54:19.529Z,466.00
2023-05-09T06:55:19.560Z,465.00
2023-05-09T06:56:20.113Z,493.00
2023-05-09T06:57:19.720Z,483.00
2023-05-09T06:58:20.202Z,479.00
2023-05-09T06:59:20.073Z,485.00
2023-05-09T07:00:19.705Z,481.00
2023-05-09T07:01:19.890Z,472.00
2023-05-09T07:02:19.793Z,436.00
2023-05-09T07:03:19.867Z,437.00
2023-05-09T07:04:19.820Z,438.00
2023-05-09T07:05:19.904Z,441.00
2023-05-09T07:06:19.881Z,464.00
2023-05-09T07:07:19.992Z,469.00
2023-05-09T07:08:19.933Z,461.00
2023-05-09T07:09:19.959Z,470.00
2023-05-09T07:10:19.934Z,516.00
2023-05-09T07:11:19.962Z,502.00
2023-05-09T07:12:19.977Z,506.00
2023-05-09T07:13:20.077Z,501.00
2023-05-09T07:14:20.092Z,488.00
2023-05-09T07:15:32.397Z,476.00
2023-05-09T07:16:21.073Z,511.00
2023-05-09T07:17:23.417Z,515.00
2023-05-09T07:18:20.010Z,508.00
2023-05-09T07:19:20.101Z,507.00
2023-05-09T07:20:19.981Z,508.00
2023-05-09T07:21:19.965Z,508.00
2023-05-09T07:22:19.986Z,501.00
2023-05-09T07:23:20.058Z,487.00
2023-05-09T07:24:20.086Z,479.00
2023-05-09T07:25:19.961Z,471.00
2023-05-09T07:26:19.967Z,463.00
2023-05-09T07:27:19.928Z,487.00
2023-05-09T07:28:19.932Z,551.00
2023-05-09T07:29:20.070Z,561.00
2023-05-09T07:30:19.918Z,567.00
2023-05-09T07:31:19.910Z,574.00
2023-05-09T07:32:19.920Z,585.00
2023-05-09T07:33:20.078Z,595.00
2023-05-09T07:34:20.096Z,608.00
2023-05-09T07:35:19.895Z,632.00
2023-05-09T07:36:19.875Z,634.00
2023-05-09T07:37:19.865Z,639.00
2023-05-09T07:38:20.094Z,645.00
2023-05-09T07:39:20.164Z,649.00
2023-05-09T07:40:19.842Z,664.00
2023-05-09T07:41:19.845Z,670.00
2023-05-09T07:42:19.841Z,672.00
2023-05-09T07:43:19.812Z,555.00
2023-05-09T07:44:19.831Z,579.00
2023-05-09T07:45:22.024Z,588.00
2023-05-09T07:46:19.915Z,593.00
2023-05-09T07:47:19.796Z,626.00
2023-05-09T07:48:19.804Z,627.00
2023-05-09T07:49:19.777Z,656.00
2023-05-09T07:50:19.764Z,665.00
2023-05-09T07:51:19.777Z,643.00
2023-05-09T07:52:19.769Z,607.00
2023-05-09T07:53:19.734Z,612.00
2023-05-09T07:54:20.085Z,569.00
2023-05-09T07:55:19.821Z,626.00
2023-05-09T07:56:19.726Z,642.00
2023-05-09T07:57:19.725Z,659.00
2023-05-09T07:58:19.736Z,670.00
2023-05-09T07:59:20.100Z,686.00
2023-05-09T08:00:19.703Z,706.00
2023-05-09T08:01:19.699Z,756.00
2023-05-09T08:02:19.730Z,744.00
2023-05-09T08:03:19.815Z,745.00
2023-05-09T08:04:19.719Z,734.00
2023-05-09T08:05:19.657Z,735.00
2023-05-09T08:06:19.657Z,734.00
2023-05-09T08:07:19.654Z,735.00
2023-05-09T08:08:19.636Z,741.00
2023-05-09T08:09:19.655Z,748.00
2023-05-09T08:10:19.642Z,746.00
2023-05-09T08:11:19.701Z,735.00
2023-05-09T08:12:19.635Z,746.00
2023-05-09T08:13:19.636Z,751.00
2023-05-09T08:14:19.616Z,753.00
2023-05-09T08:15:19.603Z,753.00
2023-05-09T08:16:19.694Z,748.00
2023-05-09T08:17:19.620Z,753.00
2023-05-09T08:18:19.580Z,806.00
2023-05-09T08:19:19.612Z,804.00
2023-05-09T08:20:19.585Z,772.00
2023-05-09T08:21:22.090Z,768.00
2023-05-09T08:22:19.824Z,773.00
2023-05-09T08:23:20.116Z,758.00
2023-05-09T08:24:19.853Z,687.00
2023-05-09T08:25:19.864Z,735.00
2023-05-09T08:26:19.887Z,739.00
2023-05-09T08:27:19.940Z,735.00
2023-05-09T08:28:21.677Z,729.00
2023-05-09T08:29:19.978Z,720.00
2023-05-09T08:30:20.013Z,710.00
2023-05-09T08:31:20.130Z,699.00
2023-05-09T08:32:20.116Z,687.00
2023-05-09T08:33:20.116Z,639.00
2023-05-09T08:34:20.170Z,623.00
2023-05-09T08:35:20.200Z,597.00
2023-05-09T08:36:20.293Z,586.00
2023-05-09T08:37:20.311Z,572.00
2023-05-09T08:38:20.404Z,620.00
2023-05-09T08:39:20.666Z,672.00
2023-05-09T08:40:20.500Z,695.00
2023-05-09T08:41:20.557Z,717.00
2023-05-09T08:42:20.596Z,728.00
2023-05-09T08:43:20.730Z,740.00
2023-05-09T08:44:21.160Z,765.00
2023-05-09T08:45:20.728Z,790.00
2023-05-09T08:46:20.798Z,798.00
2023-05-09T08:47:20.818Z,802.00
2023-05-09T08:48:20.803Z,806.00
2023-05-09T08:49:21.125Z,809.00
2023-05-09T08:50:20.955Z,812.00
2023-05-09T08:51:20.904Z,815.00
2023-05-09T08:52:21.047Z,816.00
2023-05-09T08:53:20.958Z,821.00
2023-05-09T08:54:22.899Z,773.00
2023-05-09T08:55:21.140Z,811.00
2023-05-09T08:56:21.017Z,816.00
2023-05-09T08:57:21.046Z,828.00
2023-05-09T08:58:21.089Z,839.00
2023-05-09T08:59:21.210Z,853.00
2023-05-09T09:00:21.378Z,862.00
2023-05-09T09:01:21.177Z,863.00
2023-05-09T09:02:21.170Z,864.00
2023-05-09T09:03:21.185Z,859.00
2023-05-09T09:04:21.659Z,774.00
2023-05-09T09:05:40.283Z,774.00
2023-05-09T09:06:22.211Z,843.00
2023-05-09T09:07:21.195Z,849.00
2023-05-09T09:08:21.195Z,856.00
2023-05-09T09:09:21.196Z,859.00
2023-05-09T09:10:21.216Z,862.00
2023-05-09T09:11:21.158Z,862.00
2023-05-09T09:12:21.151Z,862.00
2023-05-09T09:13:21.208Z,858.00
2023-05-09T09:14:21.621Z,855.00
2023-05-09T09:15:21.231Z,847.00
2023-05-09T09:16:21.208Z,843.00
2023-05-09T09:17:21.281Z,834.00
2023-05-09T09:18:21.114Z,812.00
2023-05-09T09:19:21.127Z,801.00
2023-05-09T09:20:21.177Z,796.00
2023-05-09T09:21:21.113Z,792.00
2023-05-09T09:22:21.110Z,799.00
2023-05-09T09:23:21.142Z,807.00
2023-05-09T09:24:21.093Z,810.00
2023-05-09T09:25:21.083Z,809.00
2023-05-09T09:26:21.069Z,677.00
2023-05-09T09:27:21.074Z,695.00
2023-05-09T09:28:21.117Z,697.00
2023-05-09T09:29:21.638Z,682.00
2023-05-09T09:30:21.190Z,623.00
2023-05-09T09:31:21.261Z,613.00
2023-05-09T09:32:21.246Z,656.00
2023-05-09T09:33:21.248Z,683.00
2023-05-09T09:34:21.676Z,689.00
2023-05-09T09:35:21.265Z,699.00
2023-05-09T09:36:21.298Z,694.00
2023-05-09T09:37:21.312Z,684.00
2023-05-09T09:38:21.329Z,678.00
2023-05-09T09:39:21.343Z,678.00
2023-05-09T09:40:21.359Z,678.00
2023-05-09T09:41:21.405Z,678.00
2023-05-09T09:42:21.405Z,685.00
2023-05-09T09:43:21.434Z,692.00
2023-05-09T09:44:21.643Z,683.00
2023-05-09T09:45:21.502Z,688.00
2023-05-09T09:46:21.563Z,709.00
2023-05-09T09:47:21.571Z,702.00
2023-05-09T09:48:21.646Z,696.00
2023-05-09T09:49:21.653Z,689.00
2023-05-09T09:50:21.532Z,691.00
2023-05-09T09:51:21.578Z,683.00
2023-05-09T09:52:21.550Z,699.00
2023-05-09T09:53:21.557Z,711.00
2023-05-09T09:54:22.134Z,710.00
2023-05-09T09:55:21.597Z,708.00
2023-05-09T09:56:21.615Z,710.00
2023-05-09T09:57:21.638Z,716.00
2023-05-09T09:58:21.609Z,723.00
2023-05-09T09:59:21.611Z,730.00
2023-05-09T10:00:21.607Z,730.00
2023-05-09T10:01:21.800Z,735.00
2023-05-09T10:02:21.605Z,739.00
2023-05-09T10:03:21.752Z,751.00
2023-05-09T10:04:21.666Z,756.00
2023-05-09T10:05:21.630Z,760.00
2023-05-09T10:06:21.612Z,765.00
2023-05-09T10:07:21.635Z,766.00
2023-05-09T10:08:21.631Z,769.00
2023-05-09T10:09:21.629Z,775.00
2023-05-09T10:10:21.695Z,783.00
2023-05-09T10:11:21.625Z,786.00
2023-05-09T10:12:21.599Z,787.00
2023-05-09T10:13:21.696Z,777.00
2023-05-09T10:14:21.646Z,763.00
2023-05-09T10:15:21.629Z,757.00
2023-05-09T10:16:35.600Z,742.00
2023-05-09T10:17:22.932Z,663.00
2023-05-09T10:18:21.862Z,696.00
2023-05-09T10:19:21.758Z,708.00
2023-05-09T10:20:21.608Z,717.00
2023-05-09T10:21:21.595Z,723.00
2023-05-09T10:22:21.595Z,703.00
2023-05-09T10:23:21.607Z,691.00
2023-05-09T10:24:21.649Z,690.00
2023-05-09T10:25:21.629Z,705.00
2023-05-09T10:26:21.575Z,708.00
2023-05-09T10:27:21.598Z,760.00
2023-05-09T10:28:21.581Z,785.00
2023-05-09T10:29:21.579Z,796.00
2023-05-09T10:30:21.569Z,801.00
2023-05-09T10:31:21.613Z,807.00
2023-05-09T10:32:21.553Z,792.00
2023-05-09T10:33:21.554Z,817.00
2023-05-09T10:34:21.649Z,839.00
2023-05-09T10:35:21.635Z,850.00
2023-05-09T10:36:21.530Z,861.00
2023-05-09T10:37:21.557Z,877.00
2023-05-09T10:38:21.594Z,879.00
2023-05-09T10:39:21.660Z,884.00
2023-05-09T10:40:21.550Z,900.00
2023-05-09T10:41:21.567Z,908.00
2023-05-09T10:42:21.579Z,911.00
2023-05-09T10:43:21.580Z,904.00
2023-05-09T10:44:21.698Z,901.00
2023-05-09T10:45:21.587Z,897.00
2023-05-09T10:46:21.614Z,898.00
2023-05-09T10:47:21.610Z,900.00
2023-05-09T10:48:21.597Z,896.00
2023-05-09T10:49:21.665Z,832.00
2023-05-09T10:50:21.642Z,842.00
2023-05-09T10:51:21.680Z,827.00
2023-05-09T10:52:21.594Z,830.00
2023-05-09T10:53:21.613Z,843.00
2023-05-09T10:54:21.651Z,815.00
2023-05-09T10:55:21.610Z,839.00
2023-05-09T10:56:21.625Z,846.00
2023-05-09T10:57:21.597Z,844.00
2023-05-09T10:58:21.578Z,836.00
2023-05-09T10:59:21.668Z,826.00
2023-05-09T11:00:21.580Z,821.00
2023-05-09T11:01:21.649Z,756.00
2023-05-09T11:02:21.612Z,774.00
2023-05-09T11:03:21.713Z,700.00
2023-05-09T11:04:21.686Z,727.00
2023-05-09T11:05:21.590Z,789.00
2023-05-09T11:06:21.614Z,793.00
2023-05-09T11:07:21.683Z,792.00
2023-05-09T11:08:21.570Z,784.00
2023-05-09T11:09:21.600Z,777.00
2023-05-09T11:10:21.591Z,728.00
2023-05-09T11:11:21.598Z,722.00
2023-05-09T11:12:21.605Z,708.00
2023-05-09T11:13:21.644Z,611.00
2023-05-09T11:14:21.678Z,666.00
2023-05-09T11:15:21.693Z,543.00
2023-05-09T11:16:21.614Z,516.00
2023-05-09T11:17:21.691Z,553.00
2023-05-09T11:18:21.625Z,487.00
2023-05-09T11:19:21.622Z,487.00
2023-05-09T11:20:21.637Z,478.00
2023-05-09T11:21:21.678Z,474.00
2023-05-09T11:22:21.687Z,478.00
2023-05-09T11:23:21.771Z,470.00
2023-05-09T11:24:21.689Z,464.00
2023-05-09T11:25:21.711Z,456.00
2023-05-09T11:26:21.711Z,450.00
2023-05-09T11:27:21.744Z,447.00
2023-05-09T11:28:21.781Z,447.00
2023-05-09T11:29:21.763Z,445.00
2023-05-09T11:30:21.809Z,437.00
2023-05-09T11:31:21.843Z,431.00
2023-05-09T11:32:21.896Z,427.00
2023-05-09T11:33:21.851Z,427.00
2023-05-09T11:34:21.882Z,426.00
2023-05-09T11:35:21.895Z,426.00
2023-05-09T11:36:21.924Z,425.00
2023-05-09T11:37:21.935Z,424.00
2023-05-09T11:38:21.977Z,419.00
2023-05-09T11:39:22.065Z,419.00
2023-05-09T11:40:22.035Z,412.00
2023-05-09T11:41:22.001Z,406.00
2023-05-09T11:42:22.005Z,397.00
2023-05-09T11:43:22.014Z,391.00
2023-05-09T11:44:22.050Z,382.00
2023-05-09T11:45:22.080Z,382.00
2023-05-09T11:46:22.074Z,438.00
2023-05-09T11:47:22.154Z,407.00
2023-05-09T11:48:22.148Z,403.00
2023-05-09T11:49:22.240Z,388.00
2023-05-09T11:50:22.217Z,382.00
2023-05-09T11:51:22.246Z,377.00
2023-05-09T11:52:22.264Z,371.00
2023-05-09T11:53:22.327Z,374.00
2023-05-09T11:54:22.369Z,380.00
2023-05-09T11:55:22.555Z,381.00
2023-05-09T11:56:22.422Z,380.00
2023-05-09T11:57:22.429Z,381.00
2023-05-09T11:58:22.466Z,383.00
2023-05-09T11:59:22.499Z,385.00
2023-05-09T12:00:22.513Z,387.00
2023-05-09T12:01:22.538Z,387.00
2023-05-09T12:02:22.657Z,387.00
2023-05-09T12:03:22.705Z,386.00
2023-05-09T12:04:22.632Z,384.00
2023-05-09T12:05:22.715Z,381.00
2023-05-09T12:06:22.653Z,379.00
2023-05-09T12:07:22.679Z,378.00
2023-05-09T12:08:22.711Z,379.00
2023-05-09T12:09:22.716Z,378.00
2023-05-09T12:10:22.830Z,376.00
2023-05-09T12:11:22.878Z,375.00
2023-05-09T12:12:22.798Z,376.00
2023-05-09T12:13:22.836Z,375.00
2023-05-09T12:14:22.814Z,376.00
2023-05-09T12:15:22.890Z,374.00
2023-05-09T12:16:22.909Z,373.00
2023-05-09T12:17:22.920Z,371.00
2023-05-09T12:18:22.907Z,371.00
2023-05-09T12:19:22.925Z,371.00
2023-05-09T12:20:22.929Z,374.00
2023-05-09T12:21:22.959Z,375.00
2023-05-09T12:22:22.959Z,376.00
2023-05-09T12:23:22.989Z,375.00
2023-05-09T12:24:23.005Z,374.00
2023-05-09T12:25:23.027Z,375.00
2023-05-09T12:26:23.030Z,374.00
2023-05-09T12:27:23.158Z,372.00
2023-05-09T12:28:23.082Z,371.00